createdAt,value
2019-03-25T00:02:09.571Z,63.57
2019-03-25T00:04:38.205Z,64.15
2019-03-25T00:07:06.782Z,64.30
2019-03-25T00:09:35.472Z,63.85
2019-03-25T00:12:04.084Z,64.39
2019-03-25T00:14:32.950Z,63.85
2019-03-25T00:17:01.634Z,64.35
2019-03-25T00:19:30.252Z,63.78
2019-03-25T00:21:58.836Z,68.89
2019-03-25T00:24:37.924Z,64.69
2019-03-25T00:26:57.815Z,63.85
2019-03-25T00:29:26.365Z,62.45
2019-03-25T00:31:55.467Z,64.46
2019-03-25T00:34:24.070Z,63.24
2019-03-25T00:36:52.656Z,63.48
2019-03-25T00:39:21.230Z,64.44
2019-03-25T00:41:49.678Z,64.19
2019-03-25T00:44:18.419Z,64.24
2019-03-25T00:46:46.865Z,63.84
2019-03-25T00:49:15.481Z,63.37
2019-03-25T00:51:44.193Z,63.51
2019-03-25T00:54:12.776Z,63.56
2019-03-25T00:56:41.305Z,64.65
2019-03-25T00:59:09.956Z,63.77
2019-03-25T01:01:38.460Z,63.10
2019-03-25T01:04:07.070Z,63.54
2019-03-25T01:06:35.674Z,63.89
2019-03-25T01:09:06.150Z,64.59
2019-03-25T01:11:34.767Z,64.47
2019-03-25T01:14:04.209Z,65.34
2019-03-25T01:16:32.831Z,64.74
2019-03-25T01:19:01.274Z,64.85
2019-03-25T01:21:29.885Z,64.49
2019-03-25T01:23:58.455Z,64.11
2019-03-25T01:26:27.039Z,64.29
2019-03-25T01:28:55.666Z,64.43
2019-03-25T01:31:24.911Z,64.95
2019-03-25T01:33:53.550Z,65.41
2019-03-25T01:36:22.069Z,63.28
2019-03-25T01:38:50.703Z,62.80
2019-03-25T01:41:19.182Z,62.65
2019-03-25T01:43:47.794Z,62.65
2019-03-25T01:46:16.293Z,63.33
2019-03-25T01:48:44.843Z,62.10
2019-03-25T01:51:13.420Z,64.14
2019-03-25T01:53:41.993Z,63.73
2019-03-25T01:56:10.467Z,63.14
2019-03-25T01:58:38.945Z,63.79
2019-03-25T02:01:07.519Z,63.32
2019-03-25T02:03:36.022Z,63.51
2019-03-25T02:06:05.654Z,63.54
2019-03-25T02:08:34.243Z,66.20
2019-03-25T02:11:03.072Z,64.36
2019-03-25T02:13:31.653Z,62.45
2019-03-25T02:16:00.664Z,63.45
2019-03-25T02:18:29.234Z,62.94
2019-03-25T02:20:57.838Z,63.31
2019-03-25T02:23:26.409Z,64.28
2019-03-25T02:25:54.841Z,64.16
2019-03-25T02:28:23.438Z,64.45
2019-03-25T02:30:52.075Z,63.68
2019-03-25T02:33:20.579Z,63.37
2019-03-25T02:35:49.133Z,63.63
2019-03-25T02:38:17.686Z,62.73
2019-03-25T02:40:46.320Z,64.03
2019-03-25T02:43:14.795Z,65.62
2019-03-25T02:45:43.379Z,65.40
2019-03-25T02:48:12.134Z,63.03
2019-03-25T02:50:40.618Z,61.93
2019-03-25T02:53:09.134Z,63.13
2019-03-25T02:55:41.988Z,62.84
2019-03-25T02:58:07.954Z,62.87
2019-03-25T03:00:38.045Z,64.25
2019-03-25T03:03:08.192Z,63.97
2019-03-25T03:05:37.400Z,64.75
2019-03-25T03:08:06.993Z,63.67
2019-03-25T03:10:36.028Z,64.21
2019-03-25T03:13:04.734Z,63.59
2019-03-25T03:15:33.327Z,64.55
2019-03-25T03:18:02.017Z,64.97
2019-03-25T03:20:30.609Z,69.23
2019-03-25T03:22:59.135Z,64.42
2019-03-25T03:25:27.717Z,63.16
2019-03-25T03:27:56.266Z,64.18
2019-03-25T03:30:25.181Z,63.97
2019-03-25T03:32:53.806Z,65.30
2019-03-25T03:35:22.301Z,64.83
2019-03-25T03:37:50.845Z,64.02
2019-03-25T03:40:19.709Z,63.89
2019-03-25T03:42:48.307Z,64.23
2019-03-25T03:45:17.037Z,65.34
2019-03-25T03:47:45.480Z,65.26
2019-03-25T03:50:16.995Z,66.08
2019-03-25T03:52:45.966Z,67.17
2019-03-25T03:55:15.508Z,69.88
2019-03-25T03:57:44.698Z,67.23
2019-03-25T04:00:16.386Z,65.70
2019-03-25T04:02:44.999Z,65.30
2019-03-25T04:05:13.542Z,66.76
2019-03-25T04:07:42.092Z,66.09
2019-03-25T04:10:10.754Z,66.65
2019-03-25T04:12:39.318Z,67.46
2019-03-25T04:15:08.630Z,68.19
2019-03-25T04:17:37.135Z,68.52
2019-03-25T04:20:07.640Z,67.71
2019-03-25T04:22:36.239Z,68.56
2019-03-25T04:25:06.451Z,67.52
2019-03-25T04:27:35.126Z,67.34
2019-03-25T04:30:03.811Z,69.59
2019-03-25T04:32:32.453Z,69.27
2019-03-25T04:35:00.976Z,66.76
2019-03-25T04:37:29.553Z,66.53
2019-03-25T04:39:58.023Z,66.75
2019-03-25T04:42:26.529Z,66.06
2019-03-25T04:44:55.176Z,67.06
2019-03-25T04:47:23.614Z,66.54
2019-03-25T04:49:52.158Z,66.26
2019-03-25T04:52:20.742Z,66.53
2019-03-25T04:54:49.248Z,67.85
2019-03-25T04:57:17.798Z,67.51
2019-03-25T04:59:46.410Z,67.21
2019-03-25T05:02:14.857Z,67.39
2019-03-25T05:04:43.407Z,67.98
2019-03-25T05:07:11.921Z,71.10
2019-03-25T05:09:40.419Z,68.12
2019-03-25T05:12:09.444Z,67.90
2019-03-25T05:14:38.018Z,66.24
2019-03-25T05:17:06.684Z,65.83
2019-03-25T05:19:35.307Z,66.01
2019-03-25T05:22:03.902Z,67.45
2019-03-25T05:24:32.425Z,68.12
2019-03-25T05:27:00.898Z,67.78
2019-03-25T05:29:29.504Z,67.22
2019-03-25T05:31:58.108Z,67.50
2019-03-25T05:34:26.648Z,67.44
2019-03-25T05:36:55.796Z,67.67
2019-03-25T05:39:25.104Z,67.71
2019-03-25T05:41:53.609Z,73.11
2019-03-25T05:44:22.137Z,67.72
2019-03-25T05:46:50.771Z,66.17
2019-03-25T05:49:19.386Z,67.04
2019-03-25T05:51:47.913Z,66.66
2019-03-25T05:54:16.362Z,66.50
2019-03-25T05:56:44.969Z,68.27
2019-03-25T05:59:13.564Z,67.04
2019-03-25T06:01:44.241Z,67.31
2019-03-25T06:04:12.390Z,67.40
2019-03-25T06:06:40.980Z,66.63
2019-03-25T06:09:09.518Z,68.86
2019-03-25T06:11:38.069Z,67.68
2019-03-25T06:14:06.665Z,68.22
2019-03-25T06:16:35.280Z,74.08
2019-03-25T06:19:04.039Z,72.30
2019-03-25T06:21:32.584Z,69.29
2019-03-25T06:24:01.077Z,68.21
2019-03-25T06:26:29.634Z,68.79
2019-03-25T06:28:58.133Z,68.09
2019-03-25T06:31:26.650Z,67.71
2019-03-25T06:33:55.128Z,68.18
2019-03-25T06:36:23.689Z,67.62
2019-03-25T06:38:52.246Z,67.94
2019-03-25T06:41:20.771Z,68.01
2019-03-25T06:43:49.403Z,67.06
2019-03-25T06:46:18.001Z,67.06
2019-03-25T06:48:46.516Z,69.73
2019-03-25T06:51:15.578Z,69.94
2019-03-25T06:53:44.060Z,72.35
2019-03-25T06:56:12.631Z,68.54
2019-03-25T06:58:41.670Z,66.46
2019-03-25T07:01:10.178Z,66.70
2019-03-25T07:03:38.635Z,66.63
2019-03-25T07:06:07.393Z,66.37
2019-03-25T07:08:35.908Z,66.26
2019-03-25T07:11:04.788Z,65.95
2019-03-25T07:13:33.713Z,67.09
2019-03-25T07:16:02.216Z,66.66
2019-03-25T07:18:31.248Z,64.83
2019-03-25T07:20:59.819Z,62.50
2019-03-25T07:23:28.494Z,59.93
2019-03-25T07:25:57.049Z,62.97
2019-03-25T07:28:25.596Z,66.92
2019-03-25T07:30:54.221Z,63.41
2019-03-25T07:33:22.777Z,61.06
2019-03-25T07:35:51.390Z,62.52
2019-03-25T07:38:20.008Z,61.12
2019-03-25T07:40:48.600Z,61.84
2019-03-25T07:43:17.080Z,62.25
2019-03-25T07:45:45.931Z,62.23
2019-03-25T07:48:14.516Z,61.83
2019-03-25T07:50:43.174Z,59.26
2019-03-25T07:53:11.768Z,58.62
2019-03-25T07:55:40.382Z,58.43
2019-03-25T07:58:08.986Z,57.69
2019-03-25T08:00:37.623Z,57.50
2019-03-25T08:03:06.258Z,58.02
2019-03-25T08:05:35.153Z,54.96
2019-03-25T08:08:03.815Z,55.10
2019-03-25T08:10:33.695Z,54.55
2019-03-25T08:13:02.911Z,56.11
2019-03-25T08:15:31.679Z,55.21
2019-03-25T08:18:00.530Z,55.16
2019-03-25T08:20:29.139Z,55.94
2019-03-25T08:22:57.700Z,56.25
2019-03-25T08:25:26.499Z,55.65
2019-03-25T08:27:59.848Z,55.76
2019-03-25T08:30:25.495Z,56.42
2019-03-25T08:32:53.953Z,57.04
2019-03-25T08:35:23.097Z,57.27
2019-03-25T08:37:51.769Z,58.00
2019-03-25T08:40:20.366Z,57.97
2019-03-25T08:42:49.001Z,57.61
2019-03-25T08:45:17.998Z,55.44
2019-03-25T08:47:46.535Z,55.72
2019-03-25T08:50:15.309Z,56.12
2019-03-25T08:52:44.346Z,57.14
2019-03-25T08:55:13.271Z,56.17
2019-03-25T08:57:41.942Z,57.66
2019-03-25T09:00:13.429Z,59.85
2019-03-25T09:02:42.000Z,60.73
2019-03-25T09:05:11.122Z,61.45
2019-03-25T09:07:39.698Z,63.94
2019-03-25T09:10:09.978Z,64.62
2019-03-25T09:12:38.604Z,64.86
2019-03-25T09:15:10.308Z,68.33
2019-03-25T09:17:38.997Z,65.71
2019-03-25T09:20:09.018Z,65.60
2019-03-25T09:22:37.718Z,65.94
2019-03-25T09:25:07.796Z,65.59
2019-03-25T09:27:36.417Z,66.24
2019-03-25T09:30:06.676Z,64.73
2019-03-25T09:32:35.378Z,66.14
2019-03-25T09:35:04.797Z,67.10
2019-03-25T09:37:33.457Z,64.58
2019-03-25T09:40:02.064Z,62.46
2019-03-25T09:42:30.704Z,63.93
2019-03-25T09:44:59.308Z,64.63
2019-03-25T09:47:28.006Z,66.06
2019-03-25T09:49:56.578Z,70.96
2019-03-25T09:52:25.287Z,65.65
2019-03-25T09:54:54.071Z,64.74
2019-03-25T09:57:22.827Z,64.01
2019-03-25T09:59:51.574Z,65.30
2019-03-25T10:02:20.140Z,64.60
2019-03-25T10:04:48.773Z,64.54
2019-03-25T10:07:22.509Z,64.61
2019-03-25T10:09:51.048Z,65.17
2019-03-25T10:12:19.733Z,66.13
2019-03-25T10:14:48.327Z,64.32
2019-03-25T10:17:17.330Z,64.24
2019-03-25T10:19:46.117Z,63.69
2019-03-25T10:22:15.159Z,63.49
2019-03-25T10:24:43.959Z,63.86
2019-03-25T10:27:12.672Z,59.93
2019-03-25T10:29:41.251Z,58.91
2019-03-25T10:32:09.945Z,57.00
2019-03-25T10:34:38.602Z,58.81
2019-03-25T10:37:07.310Z,57.72
2019-03-25T10:39:35.847Z,56.00
2019-03-25T10:42:04.462Z,57.87
2019-03-25T10:44:33.037Z,58.37
2019-03-25T10:47:01.661Z,57.09
2019-03-25T10:49:30.111Z,56.91
2019-03-25T10:51:58.686Z,58.90
2019-03-25T10:54:27.273Z,61.66
2019-03-25T10:56:55.757Z,64.92
2019-03-25T10:59:24.207Z,66.56
2019-03-25T11:01:52.751Z,68.31
2019-03-25T11:04:21.379Z,64.63
2019-03-25T11:06:50.039Z,63.74
2019-03-25T11:09:18.598Z,64.47
2019-03-25T11:11:47.217Z,64.05
2019-03-25T11:14:15.883Z,63.39
2019-03-25T11:16:44.505Z,60.94
2019-03-25T11:19:13.031Z,60.51
2019-03-25T11:21:41.570Z,61.20
2019-03-25T11:24:10.168Z,60.44
2019-03-25T11:26:39.079Z,59.64
2019-03-25T11:29:08.557Z,59.64
2019-03-25T11:31:37.451Z,58.80
2019-03-25T11:34:06.085Z,59.14
2019-03-25T11:36:34.733Z,62.71
2019-03-25T11:39:03.386Z,59.62
2019-03-25T11:41:32.033Z,59.05
2019-03-25T11:44:00.834Z,58.21
2019-03-25T11:46:29.445Z,58.35
2019-03-25T11:48:58.120Z,56.98
2019-03-25T11:51:26.776Z,57.03
2019-03-25T11:53:55.332Z,56.84
2019-03-25T11:56:23.908Z,54.54
2019-03-25T11:58:52.424Z,54.79
2019-03-25T12:01:21.127Z,53.78
2019-03-25T12:03:49.992Z,54.40
2019-03-25T12:06:18.616Z,54.35
2019-03-25T12:08:47.191Z,53.71
2019-03-25T12:11:15.823Z,56.96
2019-03-25T12:13:44.391Z,58.06
2019-03-25T12:16:13.012Z,59.58
2019-03-25T12:18:41.610Z,60.71
2019-03-25T12:21:10.152Z,59.39
2019-03-25T12:23:38.781Z,58.61
2019-03-25T12:26:07.294Z,59.20
2019-03-25T12:28:35.941Z,59.20
2019-03-25T12:31:04.541Z,59.73
2019-03-25T12:33:33.131Z,56.99
2019-03-25T12:36:01.672Z,56.21
2019-03-25T12:38:30.309Z,55.61
2019-03-25T12:40:58.938Z,56.58
2019-03-25T12:43:27.426Z,54.19
2019-03-25T12:45:56.089Z,56.31
2019-03-25T12:48:24.586Z,58.02
2019-03-25T12:50:53.146Z,56.09
2019-03-25T12:53:21.624Z,56.85
2019-03-25T12:55:50.383Z,56.46
2019-03-25T12:58:19.418Z,56.68
2019-03-25T13:00:48.061Z,56.46
2019-03-25T13:03:16.850Z,55.61
2019-03-25T13:05:45.371Z,56.25
2019-03-25T13:08:13.902Z,55.82
2019-03-25T13:10:42.464Z,57.13
2019-03-25T13:13:11.065Z,56.90
2019-03-25T13:15:39.674Z,56.96
2019-03-25T13:18:08.336Z,57.65
2019-03-25T13:20:36.865Z,58.63
2019-03-25T13:23:05.470Z,61.17
2019-03-25T13:25:34.068Z,57.70
2019-03-25T13:28:02.633Z,58.61
2019-03-25T13:30:31.290Z,61.20
2019-03-25T13:32:59.846Z,62.54
2019-03-25T13:35:28.456Z,63.21
2019-03-25T13:37:58.952Z,64.02
2019-03-25T13:40:27.387Z,65.29
2019-03-25T13:42:55.864Z,64.46
2019-03-25T13:45:25.198Z,64.53
2019-03-25T13:47:54.091Z,62.73
2019-03-25T13:50:22.734Z,62.61
2019-03-25T13:52:51.341Z,62.54
2019-03-25T13:55:20.802Z,62.77
2019-03-25T13:57:49.307Z,63.12
2019-03-25T14:00:20.843Z,60.90
2019-03-25T14:02:49.319Z,61.81
2019-03-25T14:05:17.849Z,63.43
2019-03-25T14:07:46.389Z,63.73
2019-03-25T14:10:15.377Z,65.42
2019-03-25T14:12:43.850Z,65.24
2019-03-25T14:15:12.717Z,67.47
2019-03-25T14:17:41.333Z,66.09
2019-03-25T14:20:10.756Z,65.74
2019-03-25T14:22:39.373Z,65.47
2019-03-25T14:25:08.163Z,63.93
2019-03-25T14:27:36.652Z,62.89
2019-03-25T14:30:14.429Z,63.77
2019-03-25T14:32:38.066Z,65.08
2019-03-25T14:35:07.685Z,62.61
2019-03-25T14:37:36.272Z,61.44
2019-03-25T14:40:07.225Z,61.32
2019-03-25T14:42:35.807Z,62.05
2019-03-25T14:45:05.941Z,62.15
2019-03-25T14:47:34.809Z,63.71
2019-03-25T14:50:04.463Z,63.63
2019-03-25T14:52:33.088Z,63.96
2019-03-25T14:55:01.628Z,64.95
2019-03-25T14:57:30.249Z,64.36
2019-03-25T14:59:58.776Z,64.22
2019-03-25T15:02:27.350Z,64.46
2019-03-25T15:04:56.272Z,64.14
2019-03-25T15:07:24.922Z,63.24
2019-03-25T15:09:53.653Z,63.83
2019-03-25T15:12:22.412Z,62.08
2019-03-25T15:14:50.860Z,63.41
2019-03-25T15:17:19.470Z,64.72
2019-03-25T15:20:47.911Z,66.76
2019-03-25T15:23:16.530Z,67.37
2019-03-25T15:27:15.982Z,65.94
2019-03-25T15:29:44.420Z,66.42
2019-03-25T15:32:13.058Z,65.35
2019-03-25T15:34:41.576Z,65.33
2019-03-25T15:37:10.141Z,65.68
2019-03-25T15:39:46.377Z,66.38
2019-03-25T15:42:09.110Z,66.08
2019-03-25T15:44:37.700Z,65.86
2019-03-25T15:47:06.346Z,66.31
2019-03-25T15:49:34.973Z,66.55
2019-03-25T15:52:03.544Z,65.75
2019-03-25T15:54:32.171Z,65.49
2019-03-25T15:57:00.744Z,65.60
2019-03-25T15:59:29.297Z,64.82
2019-03-25T16:01:57.891Z,64.02
2019-03-25T16:04:26.401Z,66.53
2019-03-25T16:06:55.346Z,62.46
2019-03-25T16:09:25.162Z,62.67
2019-03-25T16:11:53.627Z,62.79
2019-03-25T16:14:22.260Z,61.74
2019-03-25T16:16:51.103Z,61.78
2019-03-25T16:19:19.731Z,60.38
2019-03-25T16:21:48.451Z,59.63
2019-03-25T16:24:16.974Z,59.44
2019-03-25T16:26:45.805Z,59.66
2019-03-25T16:29:14.434Z,57.74
2019-03-25T16:31:43.090Z,57.54
2019-03-25T16:34:11.615Z,57.74
2019-03-25T16:36:40.245Z,57.91
2019-03-25T16:39:09.119Z,57.58
2019-03-25T16:41:37.746Z,56.96
2019-03-25T16:44:06.350Z,56.35
2019-03-25T16:46:34.856Z,55.93
2019-03-25T16:49:03.793Z,56.80
2019-03-25T16:51:32.393Z,56.02
2019-03-25T16:54:00.936Z,56.28
2019-03-25T16:56:29.556Z,56.85
2019-03-25T16:58:58.071Z,56.54
2019-03-25T17:01:26.731Z,57.57
2019-03-25T17:03:55.366Z,56.96
2019-03-25T17:06:24.777Z,56.35
2019-03-25T17:08:53.718Z,57.28
2019-03-25T17:11:22.297Z,57.22
2019-03-25T17:13:50.850Z,56.60
2019-03-25T17:16:19.424Z,56.63
2019-03-25T17:18:47.940Z,56.31
2019-03-25T17:21:16.560Z,56.18
2019-03-25T17:23:45.063Z,56.64
2019-03-25T17:26:13.681Z,56.27
2019-03-25T17:28:42.310Z,56.97
2019-03-25T17:31:20.543Z,56.52
2019-03-25T17:33:41.209Z,56.89
2019-03-25T17:36:09.795Z,56.99
2019-03-25T17:38:38.615Z,56.99
2019-03-25T17:41:07.309Z,56.62
2019-03-25T17:43:35.841Z,57.33
2019-03-25T17:46:04.571Z,56.96
2019-03-25T17:48:33.408Z,57.85
2019-03-25T17:51:02.160Z,58.94
2019-03-25T17:53:30.781Z,57.04
2019-03-25T17:55:59.863Z,56.90
2019-03-25T17:58:28.435Z,57.59
2019-03-25T18:01:02.784Z,57.53
2019-03-25T18:03:31.369Z,57.44
2019-03-25T18:05:59.927Z,58.24
2019-03-25T18:08:28.575Z,57.80
2019-03-25T18:10:57.192Z,57.43
2019-03-25T18:13:26.344Z,56.43
2019-03-25T18:15:55.049Z,56.86
